createdAt,value
2022-09-20T00:00:30.224Z,7.1
2022-09-20T00:05:19.249Z,7.1
2022-09-20T00:10:26.394Z,7.1
2022-09-20T00:15:31.253Z,7.1
2022-09-20T00:20:20.354Z,7.2
2022-09-20T00:25:26.359Z,7.3
2022-09-20T00:30:32.475Z,7.4
2022-09-20T00:35:21.480Z,7.4
2022-09-20T00:40:27.607Z,7.5
2022-09-20T00:45:15.602Z,7.5
2022-09-20T00:50:21.746Z,7.5
2022-09-20T00:55:27.722Z,7.4
2022-09-20T01:00:16.929Z,7.4
2022-09-20T01:05:23.115Z,7.4
2022-09-20T01:10:29.306Z,7.4
2022-09-20T01:15:18.340Z,7.4
2022-09-20T01:20:24.241Z,7.4
2022-09-20T01:25:30.132Z,7.4
2022-09-20T01:30:19.252Z,7.4
2022-09-20T01:35:25.299Z,7.4
2022-09-20T01:40:31.590Z,7.4
2022-09-20T01:45:20.403Z,7.5
2022-09-20T01:50:26.494Z,7.5
2022-09-20T01:55:32.585Z,7.5
2022-09-20T02:00:21.573Z,7.5
2022-09-20T02:05:26.774Z,7.6
2022-09-20T02:10:15.747Z,7.6
2022-09-20T02:15:21.972Z,7.6
2022-09-20T02:20:27.886Z,7.6
2022-09-20T02:25:16.971Z,7.7
2022-09-20T02:30:22.988Z,7.7
2022-09-20T02:35:29.111Z,7.7
2022-09-20T02:40:18.145Z,7.7
2022-09-20T02:45:24.188Z,7.7
2022-09-20T02:50:30.191Z,7.7
2022-09-20T02:55:19.285Z,7.8
2022-09-20T03:00:25.351Z,7.8
2022-09-20T03:05:30.532Z,7.8
2022-09-20T03:10:19.479Z,7.8
2022-09-20T03:15:25.763Z,7.8
2022-09-20T03:20:32.611Z,7.8
2022-09-20T03:25:20.721Z,7.8
2022-09-20T03:30:26.744Z,7.8
2022-09-20T03:35:15.828Z,7.8
2022-09-20T03:40:21.929Z,7.8
2022-09-20T03:45:27.987Z,7.9
2022-09-20T03:50:16.921Z,7.9
2022-09-20T03:55:23.041Z,7.9
2022-09-20T04:00:29.098Z,7.9
2022-09-20T04:05:18.330Z,7.9
2022-09-20T04:10:24.515Z,7.8
2022-09-20T04:15:30.697Z,7.8
2022-09-20T04:20:19.461Z,7.8
2022-09-20T04:25:25.595Z,7.7
2022-09-20T04:30:31.603Z,7.7
2022-09-20T04:35:20.602Z,7.7
2022-09-20T04:40:26.756Z,7.6
2022-09-20T04:45:31.828Z,7.5
2022-09-20T04:50:20.796Z,7.4
2022-09-20T04:55:26.859Z,7.3
2022-09-20T05:00:15.981Z,7.2
2022-09-20T05:05:22.059Z,7.0
2022-09-20T05:10:28.359Z,6.9
2022-09-20T05:15:17.157Z,6.8
2022-09-20T05:20:23.291Z,6.8
2022-09-20T05:25:29.295Z,6.9
2022-09-20T05:30:18.368Z,7.1
2022-09-20T05:50:24.766Z,7.2
2022-09-20T05:55:30.819Z,7.3
2022-09-20T06:00:19.863Z,7.3
2022-09-20T06:05:26.022Z,7.2
2022-09-20T06:10:32.105Z,7.2
2022-09-20T06:15:21.111Z,7.3
2022-09-20T06:20:27.462Z,7.5
2022-09-20T06:25:16.258Z,7.7
2022-09-20T06:30:22.353Z,7.7
2022-09-20T06:35:28.335Z,7.6
2022-09-20T06:40:17.526Z,7.7
2022-09-20T06:45:23.567Z,7.7
2022-09-20T06:50:29.613Z,7.8
2022-09-20T06:55:18.631Z,7.8
2022-09-20T07:00:24.791Z,7.8
2022-09-20T07:05:29.834Z,7.9
2022-09-20T07:10:18.883Z,7.7
2022-09-20T07:15:25.116Z,7.8
2022-09-20T07:20:31.303Z,7.8
2022-09-20T07:25:23.533Z,7.9
2022-09-20T07:30:29.504Z,8.0
2022-09-20T07:35:18.600Z,8.0
2022-09-20T07:40:24.769Z,8.1
2022-09-20T07:45:30.995Z,8.1
2022-09-20T07:50:21.143Z,8.2
2022-09-20T07:55:25.923Z,8.2
2022-09-20T08:00:32.570Z,8.4
2022-09-20T08:05:20.618Z,8.5
2022-09-20T08:10:26.679Z,8.6
2022-09-20T08:15:32.803Z,8.5
2022-09-20T08:20:21.743Z,9.0
2022-09-20T08:25:27.873Z,9.5
2022-09-20T08:30:16.795Z,10.2
2022-09-20T08:35:22.913Z,10.2
2022-09-20T08:40:28.963Z,10.0
2022-09-20T08:45:34.385Z,9.7
2022-09-20T08:50:23.740Z,9.5
2022-09-20T08:55:30.389Z,9.3
2022-09-20T09:00:18.876Z,9.3
2022-09-20T09:05:24.296Z,9.2
2022-09-20T09:10:30.195Z,9.7
2022-09-20T09:15:19.248Z,9.8
2022-09-20T09:20:25.464Z,9.7
2022-09-20T09:25:32.368Z,9.3
2022-09-20T09:30:20.494Z,9.5
2022-09-20T09:35:26.485Z,9.6
2022-09-20T09:40:32.782Z,9.3
2022-09-20T09:45:21.790Z,9.1
2022-09-20T09:50:27.914Z,8.8
2022-09-20T09:55:17.046Z,8.7
2022-09-20T10:00:23.319Z,8.6
2022-09-20T10:05:28.478Z,9.0
2022-09-20T10:10:17.502Z,9.1
2022-09-20T10:15:23.596Z,9.2
2022-09-20T10:20:29.672Z,9.6
2022-09-20T10:25:18.708Z,8.7
2022-09-20T10:30:24.707Z,8.3
2022-09-20T10:35:32.036Z,8.0
2022-09-20T10:40:19.970Z,8.1
2022-09-20T10:45:55.975Z,8.0
2022-09-20T10:50:17.736Z,8.4
2022-09-20T10:55:24.048Z,8.7
2022-09-20T11:00:29.961Z,8.8
2022-09-20T11:05:18.281Z,8.7
2022-09-20T11:10:24.365Z,8.9
2022-09-20T11:15:30.573Z,9.4
2022-09-20T11:20:19.546Z,9.5
2022-09-20T11:25:29.477Z,10.2
2022-09-20T11:30:31.809Z,11.1
2022-09-20T11:35:20.989Z,11.1
2022-09-20T11:40:26.896Z,10.9
2022-09-20T11:45:34.367Z,10.8
2022-09-20T11:50:21.856Z,10.6
2022-09-20T11:55:27.535Z,10.0
2022-09-20T12:00:16.702Z,10.8
2022-09-20T12:05:22.200Z,11.5
2022-09-20T12:10:28.316Z,12.3
2022-09-20T12:15:17.291Z,11.8
2022-09-20T12:20:24.531Z,11.4
2022-09-20T12:25:29.809Z,11.0
2022-09-20T12:30:18.509Z,10.7
2022-09-20T12:35:24.522Z,11.9
2022-09-20T12:40:30.796Z,12.0
2022-09-20T12:45:19.894Z,11.1
2022-09-20T12:50:25.387Z,11.9
2022-09-20T12:55:31.564Z,12.3
2022-09-20T13:00:20.507Z,11.6
2022-09-20T13:05:27.038Z,11.4
2022-09-20T13:10:32.693Z,11.2
2022-09-20T13:15:21.740Z,11.4
2022-09-20T13:20:28.264Z,11.5
2022-09-20T13:25:16.861Z,11.2
2022-09-20T13:30:22.931Z,12.2
2022-09-20T13:35:28.959Z,12.4
2022-09-20T13:40:18.125Z,12.2
2022-09-20T13:45:23.372Z,11.9
2022-09-20T13:50:29.301Z,12.9
2022-09-20T13:55:18.363Z,12.7
2022-09-20T14:00:24.321Z,13.0
2022-09-20T14:05:30.832Z,13.3
2022-09-20T14:10:21.267Z,13.0
2022-09-20T14:15:26.050Z,11.7
2022-09-20T14:20:32.755Z,11.3
2022-09-20T14:25:21.275Z,10.9
2022-09-20T14:30:27.245Z,10.6
2022-09-20T14:35:34.068Z,10.7
2022-09-20T14:40:22.315Z,10.9
2022-09-20T14:45:27.995Z,11.4
2022-09-20T14:50:17.063Z,11.4
2022-09-20T14:55:23.140Z,11.5
2022-09-20T15:00:29.236Z,11.8
2022-09-20T15:05:18.623Z,12.7
2022-09-20T15:10:24.767Z,12.7
2022-09-20T15:15:30.802Z,13.1
2022-09-20T15:20:24.188Z,12.8
2022-09-20T15:25:26.079Z,12.5
2022-09-20T15:30:33.114Z,12.5
2022-09-20T15:35:20.923Z,12.4
2022-09-20T15:40:27.099Z,12.9
2022-09-20T15:45:34.110Z,12.9
2022-09-20T15:50:21.971Z,13.3
2022-09-20T15:55:28.064Z,13.2
2022-09-20T16:00:17.319Z,12.3
2022-09-20T16:05:22.432Z,11.9
2022-09-20T16:10:28.410Z,11.5
2022-09-20T16:15:17.481Z,11.1
2022-09-20T16:20:23.633Z,10.9
2022-09-20T16:25:29.687Z,10.8
2022-09-20T16:30:18.790Z,10.7
2022-09-20T16:35:25.505Z,10.8
2022-09-20T16:40:30.834Z,10.7
2022-09-20T16:45:19.294Z,10.7
2022-09-20T16:50:25.546Z,10.4
2022-09-20T16:55:31.945Z,10.2
2022-09-20T17:00:20.498Z,9.8
2022-09-20T17:05:26.637Z,9.7
2022-09-20T17:10:32.584Z,9.6
2022-09-20T17:15:21.631Z,9.6
2022-09-20T17:20:27.829Z,9.5
2022-09-20T17:25:16.769Z,9.3
2022-09-20T17:30:22.816Z,9.1
2022-09-20T17:35:28.871Z,9.0
2022-09-20T17:40:19.036Z,8.9
2022-09-20T17:45:23.284Z,8.7
2022-09-20T17:50:29.872Z,8.7
2022-09-20T17:55:18.210Z,8.5
2022-09-20T18:00:24.310Z,8.1
2022-09-20T18:05:30.838Z,7.8
2022-09-20T18:10:19.844Z,7.5
2022-09-20T18:15:25.991Z,7.3
2022-09-20T18:20:32.052Z,7.2
2022-09-20T18:25:21.197Z,7.0
2022-09-20T18:30:27.429Z,6.8
2022-09-20T18:35:33.176Z,6.7
2022-09-20T18:40:22.309Z,6.6
2022-09-20T18:45:28.050Z,6.7
2022-09-20T18:50:17.079Z,6.5
2022-09-20T18:55:23.207Z,6.3
2022-09-20T19:00:29.223Z,6.2
2022-09-20T19:05:18.631Z,6.3
2022-09-20T19:10:24.993Z,6.3
2022-09-20T19:15:30.805Z,6.1
2022-09-20T19:20:19.798Z,6.1
2022-09-20T19:25:25.810Z,5.8
2022-09-20T19:30:31.920Z,5.7
2022-09-20T19:35:20.983Z,5.7
2022-09-20T19:40:27.100Z,5.5
2022-09-20T19:45:19.184Z,5.3
2022-09-20T19:50:21.851Z,5.2
2022-09-20T19:55:28.306Z,5.0
2022-09-20T20:00:17.062Z,4.8
2022-09-20T20:05:22.551Z,4.7
2022-09-20T20:10:28.335Z,4.6
2022-09-20T20:15:17.442Z,4.5
2022-09-20T20:20:23.600Z,4.4
2022-09-20T20:25:29.794Z,4.3
2022-09-20T20:30:18.681Z,4.2
2022-09-20T20:35:24.673Z,4.1
2022-09-20T20:40:30.918Z,4.0
2022-09-20T20:45:19.586Z,3.9
2022-09-20T20:50:25.737Z,3.9
2022-09-20T20:55:31.936Z,3.8
2022-09-20T21:00:20.810Z,3.7
2022-09-20T21:05:26.552Z,3.5
2022-09-20T21:10:34.616Z,3.4
2022-09-20T21:15:21.479Z,3.4
2022-09-20T21:20:27.751Z,3.4
2022-09-20T21:25:16.694Z,3.3
2022-09-20T21:30:22.702Z,3.4
2022-09-20T21:35:28.977Z,3.4
2022-09-20T21:40:18.196Z,3.3
2022-09-20T21:45:23.321Z,3.3
2022-09-20T21:50:30.116Z,3.2
2022-09-20T21:55:18.500Z,3.1
2022-09-20T22:00:24.578Z,3.0
2022-09-20T22:05:30.026Z,2.9
2022-09-20T22:10:19.294Z,2.8
2022-09-20T22:15:25.176Z,2.8
2022-09-20T22:20:31.344Z,2.8
2022-09-20T22:25:21.518Z,2.8
2022-09-20T22:30:26.275Z,2.9
2022-09-20T22:35:33.770Z,2.9
2022-09-20T22:40:21.486Z,2.7
2022-09-20T22:45:27.143Z,2.7
2022-09-20T22:50:16.153Z,2.7
2022-09-20T22:55:22.394Z,2.6
2022-09-20T23:00:28.378Z,2.4
2022-09-20T23:05:18.930Z,2.3
2022-09-20T23:10:24.332Z,2.3
2022-09-20T23:15:30.051Z,2.3
2022-09-20T23:20:19.286Z,2.3
2022-09-20T23:25:25.674Z,2.3
2022-09-20T23:30:31.310Z,2.2
2022-09-20T23:35:20.381Z,2.0
2022-09-20T23:40:26.443Z,2.1
2022-09-20T23:45:31.857Z,2.1
2022-09-20T23:50:20.800Z,2.1
2022-09-20T23:55:27.264Z,2.1
